Time;durP1;ratioP1;P1;durP2;ratioP2;P2;SDS_P1;SDS_P2;PMS_P1;PMS_P2;Temp;Humidity;BMP_temperature;BMP_pressure;BME280_temperature;BME280_humidity;BME280_pressure;Samples;Min_cycle;Max_cycle;Signal;HPM_P1;HPM_P2
2023/04/16 00:04:32;;;;;;;7.80;2.03;;;;;;;;;;10404027;28;20037;-60
2023/04/16 00:09:33;;;;;;;2.63;1.50;;;;;;;;;;10384527;28;20087;-59
2023/04/16 00:14:34;;;;;;;3.50;1.60;;;;;;;;;;10402726;28;20041;-59
2023/04/16 00:19:34;;;;;;;3.60;1.85;;;;;;;;;;10404142;28;20037;-61
2023/04/16 00:24:35;;;;;;;6.43;1.80;;;;;;;;;;10411634;28;20072;-60
2023/04/16 00:29:36;;;;;;;2.83;1.50;;;;;;;;;;10404939;28;20079;-62
2023/04/16 00:34:36;;;;;;;4.78;1.73;;;;;;;;;;10411115;28;20033;-62
2023/04/16 00:39:37;;;;;;;3.75;1.60;;;;;;;;;;10408220;28;20038;-61
2023/04/16 00:44:38;;;;;;;4.47;1.40;;;;;;;;;;10409879;28;20075;-61
2023/04/16 00:49:38;;;;;;;2.88;1.58;;;;;;;;;;10409955;28;20543;-60
2023/04/16 00:54:39;;;;;;;3.88;1.80;;;;;;;;;;10410745;28;20037;-61
2023/04/16 00:59:41;;;;;;;3.95;1.55;;;;;;;;;;10398352;28;20483;-60
2023/04/16 01:04:42;;;;;;;3.97;1.52;;;;;;;;;;10423196;28;20125;-62
2023/04/16 01:09:42;;;;;;;3.28;1.35;;;;;;;;;;10397531;28;20044;-62
2023/04/16 01:14:43;;;;;;;4.90;1.52;;;;;;;;;;10414513;28;20025;-62
2023/04/16 01:19:43;;;;;;;2.25;1.10;;;;;;;;;;10420179;28;20029;-62
2023/04/16 01:24:44;;;;;;;6.40;1.63;;;;;;;;;;10407664;28;20045;-62
2023/04/16 01:29:45;;;;;;;3.22;1.85;;;;;;;;;;10409276;28;20033;-61
2023/04/16 01:34:45;;;;;;;3.35;1.30;;;;;;;;;;10398322;28;20040;-61
2023/04/16 01:39:46;;;;;;;3.40;1.42;;;;;;;;;;10403209;28;20504;-61
2023/04/16 01:44:46;;;;;;;2.05;1.27;;;;;;;;;;10399649;28;20022;-62
2023/04/16 01:49:47;;;;;;;3.95;1.92;;;;;;;;;;10405446;28;20496;-61
2023/04/16 01:54:48;;;;;;;3.25;1.55;;;;;;;;;;10408281;28;20054;-60
2023/04/16 01:59:48;;;;;;;4.13;1.50;;;;;;;;;;10388302;28;20036;-60
2023/04/16 02:04:49;;;;;;;2.10;1.17;;;;;;;;;;10407210;28;20041;-59
2023/04/16 02:09:50;;;;;;;2.60;1.45;;;;;;;;;;10407972;28;20037;-59
2023/04/16 02:14:50;;;;;;;1.42;1.30;;;;;;;;;;10391090;28;20856;-59
2023/04/16 02:19:51;;;;;;;2.33;1.35;;;;;;;;;;10406393;28;20037;-59
2023/04/16 02:24:52;;;;;;;1.52;1.20;;;;;;;;;;10406349;28;20040;-60
2023/04/16 02:29:52;;;;;;;2.20;1.10;;;;;;;;;;10406395;28;20037;-60
2023/04/16 02:34:53;;;;;;;2.60;1.40;;;;;;;;;;10405240;28;20033;-60
2023/04/16 02:39:54;;;;;;;2.50;1.00;;;;;;;;;;10404169;28;20053;-59
2023/04/16 02:44:55;;;;;;;2.08;1.23;;;;;;;;;;10405152;28;20025;-60
2023/04/16 02:49:55;;;;;;;1.33;1.23;;;;;;;;;;10406396;28;20473;-61
2023/04/16 02:54:56;;;;;;;2.85;1.30;;;;;;;;;;10404641;28;20513;-60
2023/04/16 02:59:56;;;;;;;2.80;1.20;;;;;;;;;;10404991;28;20025;-60
2023/04/16 03:04:57;;;;;;;2.58;1.20;;;;;;;;;;10403286;28;20029;-60
2023/04/16 03:09:59;;;;;;;1.75;1.17;;;;;;;;;;10411796;28;20082;-61
2023/04/16 03:14:59;;;;;;;2.90;1.15;;;;;;;;;;10402932;28;20454;-60
2023/04/16 03:20:00;;;;;;;2.63;1.15;;;;;;;;;;10404058;28;20029;-61
2023/04/16 03:25:01;;;;;;;2.28;1.30;;;;;;;;;;10401610;28;20104;-60
2023/04/16 03:30:02;;;;;;;1.55;1.17;;;;;;;;;;10405508;28;20037;-60
2023/04/16 03:35:06;;;;;;;1.55;1.02;;;;;;;;;;10392128;28;20029;-60
2023/04/16 03:40:07;;;;;;;1.27;1.10;;;;;;;;;;10403223;28;20083;-61
2023/04/16 03:45:08;;;;;;;1.95;1.38;;;;;;;;;;10404192;28;20029;-60
2023/04/16 03:50:10;;;;;;;1.55;1.33;;;;;;;;;;10403386;28;20033;-60
2023/04/16 03:55:11;;;;;;;1.15;1.05;;;;;;;;;;10404080;28;20049;-61
2023/04/16 04:00:11;;;;;;;2.40;1.30;;;;;;;;;;10413156;28;20385;-59
2023/04/16 04:05:12;;;;;;;2.28;1.23;;;;;;;;;;10411308;28;20442;-60
2023/04/16 04:10:13;;;;;;;1.75;1.13;;;;;;;;;;10411365;28;20040;-62
2023/04/16 04:15:13;;;;;;;1.33;1.00;;;;;;;;;;10410584;28;20025;-59
2023/04/16 04:20:14;;;;;;;4.30;1.30;;;;;;;;;;10411290;28;20269;-61
2023/04/16 04:25:16;;;;;;;1.08;1.00;;;;;;;;;;10411015;28;20068;-61
2023/04/16 04:30:16;;;;;;;2.05;1.27;;;;;;;;;;10411924;28;20091;-61
2023/04/16 04:35:17;;;;;;;1.20;1.08;;;;;;;;;;10411642;28;20099;-61
2023/04/16 04:40:17;;;;;;;1.00;1.00;;;;;;;;;;10411638;28;20030;-60
2023/04/16 04:45:18;;;;;;;2.00;1.27;;;;;;;;;;10410878;28;20029;-61
2023/04/16 04:50:20;;;;;;;1.15;1.05;;;;;;;;;;10411869;28;20481;-60
2023/04/16 04:55:21;;;;;;;3.75;1.20;;;;;;;;;;10392303;28;20056;-61
2023/04/16 05:00:22;;;;;;;1.60;1.13;;;;;;;;;;10410084;28;20367;-61
2023/04/16 05:05:22;;;;;;;2.70;1.27;;;;;;;;;;10391251;28;20033;-61
2023/04/16 05:10:23;;;;;;;1.65;1.00;;;;;;;;;;10408937;28;20030;-61
2023/04/16 05:15:23;;;;;;;1.85;1.25;;;;;;;;;;10408796;28;20270;-61
2023/04/16 05:20:24;;;;;;;1.05;0.95;;;;;;;;;;10409587;28;20029;-62
2023/04/16 05:25:25;;;;;;;1.10;1.00;;;;;;;;;;10408859;28;20040;-62
2023/04/16 05:30:25;;;;;;;1.77;1.20;;;;;;;;;;10408706;28;20033;-61
2023/04/16 05:35:26;;;;;;;2.08;0.95;;;;;;;;;;10408276;28;20485;-60
2023/04/16 05:40:27;;;;;;;1.25;0.82;;;;;;;;;;10390742;28;20397;-60
2023/04/16 05:45:27;;;;;;;1.48;1.13;;;;;;;;;;10407587;28;20041;-61
2023/04/16 05:50:28;;;;;;;1.70;1.08;;;;;;;;;;10407861;28;20084;-60
2023/04/16 05:55:28;;;;;;;1.10;1.00;;;;;;;;;;10388808;28;20046;-59
2023/04/16 06:00:32;;;;;;;1.55;1.00;;;;;;;;;;10403868;28;20029;-60
2023/04/16 06:05:33;;;;;;;1.48;1.20;;;;;;;;;;10407390;28;20030;-62
2023/04/16 06:10:34;;;;;;;1.10;1.00;;;;;;;;;;10388804;28;20049;-60
2023/04/16 06:15:34;;;;;;;1.63;1.10;;;;;;;;;;10403517;28;20037;-60
2023/04/16 06:20:35;;;;;;;1.65;1.00;;;;;;;;;;10402950;28;20041;-62
2023/04/16 06:25:36;;;;;;;1.17;0.90;;;;;;;;;;10401795;28;20088;-62
2023/04/16 06:30:37;;;;;;;1.35;0.90;;;;;;;;;;10406684;28;20452;-62
2023/04/16 06:35:38;;;;;;;1.00;0.90;;;;;;;;;;10406349;28;20037;-61
2023/04/16 06:40:39;;;;;;;1.95;1.10;;;;;;;;;;10406359;28;20029;-62
2023/04/16 06:45:40;;;;;;;1.58;0.95;;;;;;;;;;10406042;28;20478;-60
2023/04/16 06:50:40;;;;;;;0.75;0.75;;;;;;;;;;10404329;28;20036;-59
2023/04/16 06:55:41;;;;;;;0.95;0.90;;;;;;;;;;10405863;28;20508;-59
2023/04/16 07:00:41;;;;;;;1.05;1.00;;;;;;;;;;10403778;28;20037;-60
2023/04/16 07:05:42;;;;;;;1.52;1.08;;;;;;;;;;10405554;28;20079;-59
2023/04/16 07:10:42;;;;;;;0.90;0.90;;;;;;;;;;10403540;28;20026;-60
2023/04/16 07:15:43;;;;;;;1.80;1.10;;;;;;;;;;10405557;28;20551;-60
2023/04/16 07:20:43;;;;;;;0.90;0.90;;;;;;;;;;10404373;28;20022;-60
2023/04/16 07:25:44;;;;;;;1.00;1.00;;;;;;;;;;10401973;28;20029;-59
2023/04/16 07:30:45;;;;;;;1.88;1.10;;;;;;;;;;10394581;28;20033;-59
2023/04/16 07:35:46;;;;;;;1.50;1.00;;;;;;;;;;10401149;28;20029;-59
2023/04/16 07:40:46;;;;;;;2.92;1.13;;;;;;;;;;10404191;28;20056;-59
2023/04/16 07:45:47;;;;;;;1.10;1.00;;;;;;;;;;10386168;28;20022;-59
2023/04/16 07:50:48;;;;;;;1.67;1.42;;;;;;;;;;10402608;28;20022;-60
2023/04/16 07:55:49;;;;;;;1.42;1.02;;;;;;;;;;10402985;28;20021;-60
2023/04/16 08:00:50;;;;;;;1.10;1.02;;;;;;;;;;10403885;28;20038;-60
2023/04/16 08:05:51;;;;;;;0.93;0.93;;;;;;;;;;10403459;28;20026;-60
2023/04/16 08:10:54;;;;;;;1.35;1.00;;;;;;;;;;10405837;28;20018;-60
2023/04/16 08:15:55;;;;;;;2.25;1.08;;;;;;;;;;10404848;28;20189;-62
2023/04/16 08:20:55;;;;;;;1.02;1.02;;;;;;;;;;10404508;28;20157;-60
2023/04/16 08:25:56;;;;;;;1.17;0.90;;;;;;;;;;10402997;28;20412;-60
2023/04/16 08:30:57;;;;;;;3.80;1.30;;;;;;;;;;10403217;28;20116;-63
2023/04/16 08:35:57;;;;;;;2.20;1.20;;;;;;;;;;10403507;28;20427;-62
2023/04/16 08:41:07;;;;;;;3.58;1.30;;;;;;;;;;10398353;28;20036;-61
2023/04/16 08:46:08;;;;;;;7.93;1.80;;;;;;;;;;10410842;28;20025;-61
2023/04/16 08:51:10;;;;;;;4.15;1.58;;;;;;;;;;10399462;28;20038;-60
2023/04/16 08:56:13;;;;;;;1.75;1.20;;;;;;;;;;10407770;28;20246;-60
2023/04/16 09:01:16;;;;;;;8.00;1.65;;;;;;;;;;10408766;28;20041;-61
2023/04/16 09:06:17;;;;;;;1.98;1.40;;;;;;;;;;10390723;28;20056;-61
2023/04/16 09:11:38;;;;;;;1.77;1.38;;;;;;;;;;10413102;28;20087;-60
2023/04/16 09:16:40;;;;;;;2.03;1.40;;;;;;;;;;10317659;28;20426;-61
2023/04/16 09:21:44;;;;;;;2.47;1.63;;;;;;;;;;10322848;28;20126;-60
2023/04/16 09:26:45;;;;;;;2.13;1.30;;;;;;;;;;10321683;28;20116;-60
2023/04/16 09:32:06;;;;;;;7.03;1.90;;;;;;;;;;10322075;28;20061;-60
2023/04/16 09:37:15;;;;;;;1.50;1.40;;;;;;;;;;10316432;28;20124;-61
2023/04/16 09:42:26;;;;;;;1.60;1.50;;;;;;;;;;10319667;28;20060;-60
2023/04/16 09:47:42;;;;;;;9.25;1.95;;;;;;;;;;10321054;28;20129;-61
2023/04/16 09:52:47;;;;;;;2.63;1.40;;;;;;;;;;10365972;28;20511;-62
2023/04/16 09:57:48;;;;;;;4.70;1.70;;;;;;;;;;10405753;28;20033;-62
2023/04/16 10:02:48;;;;;;;8.73;1.80;;;;;;;;;;10405020;28;20048;-63
2023/04/16 10:07:49;;;;;;;11.02;1.60;;;;;;;;;;10407071;28;20052;-62
2023/04/16 10:12:50;;;;;;;2.15;1.48;;;;;;;;;;10407646;28;20040;-63
2023/04/16 10:17:52;;;;;;;2.08;1.30;;;;;;;;;;10388125;28;20061;-58
2023/04/16 10:22:54;;;;;;;9.25;1.45;;;;;;;;;;10405599;28;20572;-60
2023/04/16 10:27:56;;;;;;;2.05;1.25;;;;;;;;;;10404776;28;20029;-60
2023/04/16 10:32:56;;;;;;;2.15;1.48;;;;;;;;;;10401879;28;20035;-62
2023/04/16 10:38:17;;;;;;;2.45;1.30;;;;;;;;;;10404576;28;20025;-58
2023/04/16 10:43:18;;;;;;;2.85;1.30;;;;;;;;;;10404587;28;20099;-59
2023/04/16 10:48:19;;;;;;;2.40;1.58;;;;;;;;;;10403904;28;20056;-59
2023/04/16 10:53:26;;;;;;;3.92;1.38;;;;;;;;;;10405562;28;20048;-58
2023/04/16 10:58:33;;;;;;;2.25;1.20;;;;;;;;;;10406427;28;20021;-58
2023/04/16 11:03:34;;;;;;;1.98;1.40;;;;;;;;;;10400483;28;20039;-60
2023/04/16 11:08:34;;;;;;;1.58;1.35;;;;;;;;;;10402815;28;20481;-62
2023/04/16 11:13:36;;;;;;;3.05;1.45;;;;;;;;;;10406037;28;20046;-61
2023/04/16 11:18:39;;;;;;;2.58;1.50;;;;;;;;;;10405527;28;20044;-62
2023/04/16 11:23:51;;;;;;;1.60;1.30;;;;;;;;;;10391733;28;20496;-61
2023/04/16 11:28:55;;;;;;;3.70;1.63;;;;;;;;;;10404891;28;20029;-61
2023/04/16 11:33:56;;;;;;;3.63;1.50;;;;;;;;;;10403684;28;20162;-61
2023/04/16 11:39:02;;;;;;;1.85;1.30;;;;;;;;;;10403882;28;20071;-62
2023/04/16 11:44:23;;;;;;;1.20;1.10;;;;;;;;;;10399250;28;20030;-61
2023/04/16 11:49:28;;;;;;;1.55;1.35;;;;;;;;;;10406352;28;20041;-62
2023/04/16 11:54:33;;;;;;;1.60;1.30;;;;;;;;;;10393583;28;20512;-61
2023/04/16 11:59:35;;;;;;;2.05;1.55;;;;;;;;;;10402994;28;20026;-62
2023/04/16 12:04:36;;;;;;;1.45;1.10;;;;;;;;;;10386684;28;20096;-62
2023/04/16 12:09:40;;;;;;;1.45;1.25;;;;;;;;;;10403670;28;20912;-62
2023/04/16 12:14:50;;;;;;;2.33;1.77;;;;;;;;;;10403422;28;20037;-62
2023/04/16 12:19:54;;;;;;;1.88;1.30;;;;;;;;;;10411522;28;20030;-60
2023/04/16 12:24:58;;;;;;;1.40;1.27;;;;;;;;;;10412371;28;20500;-61
2023/04/16 12:30:06;;;;;;;2.13;1.38;;;;;;;;;;10410798;28;20044;-58
2023/04/16 12:35:09;;;;;;;2.53;1.33;;;;;;;;;;10410233;28;20092;-59
2023/04/16 12:40:10;;;;;;;1.85;1.35;;;;;;;;;;10410784;28;20391;-59
2023/04/16 12:45:10;;;;;;;1.50;1.40;;;;;;;;;;10409286;28;20022;-61
2023/04/16 12:50:11;;;;;;;2.17;1.50;;;;;;;;;;10410170;28;20045;-62
2023/04/16 12:55:13;;;;;;;1.83;1.27;;;;;;;;;;10410593;28;20040;-62
2023/04/16 13:00:15;;;;;;;1.52;1.42;;;;;;;;;;10410209;28;20067;-62
2023/04/16 13:05:17;;;;;;;1.30;1.20;;;;;;;;;;10409970;28;20129;-63
2023/04/16 13:10:20;;;;;;;2.05;1.40;;;;;;;;;;10410496;28;20032;-63
2023/04/16 13:15:21;;;;;;;1.40;1.30;;;;;;;;;;10408629;28;20481;-62
2023/04/16 13:20:22;;;;;;;2.85;1.60;;;;;;;;;;10406982;28;20025;-62
2023/04/16 13:25:22;;;;;;;2.28;1.50;;;;;;;;;;10407164;28;20103;-63
2023/04/16 13:30:24;;;;;;;1.58;1.48;;;;;;;;;;10408253;28;20029;-61
2023/04/16 13:35:26;;;;;;;1.35;1.25;;;;;;;;;;10399103;28;20109;-62
2023/04/16 13:40:26;;;;;;;3.55;1.50;;;;;;;;;;10403030;28;20283;-62
2023/04/16 13:45:27;;;;;;;1.50;1.40;;;;;;;;;;10403884;28;20170;-63
2023/04/16 13:50:27;;;;;;;6.30;1.60;;;;;;;;;;10403891;28;20547;-61
2023/04/16 13:55:30;;;;;;;1.88;1.20;;;;;;;;;;10404565;28;20045;-61
2023/04/16 14:00:31;;;;;;;1.38;1.10;;;;;;;;;;10380203;28;20030;-59
2023/04/16 14:05:31;;;;;;;5.90;1.25;;;;;;;;;;10402957;28;20049;-58
2023/04/16 14:10:32;;;;;;;4.75;1.38;;;;;;;;;;10402916;28;20029;-58
2023/04/16 14:15:33;;;;;;;4.20;1.40;;;;;;;;;;10402965;28;20033;-60
2023/04/16 14:20:33;;;;;;;2.55;1.30;;;;;;;;;;10403225;28;20026;-58
2023/04/16 14:25:34;;;;;;;2.85;1.42;;;;;;;;;;10404898;28;20025;-58
2023/04/16 14:30:35;;;;;;;4.60;1.83;;;;;;;;;;10405635;28;20033;-61
2023/04/16 14:35:35;;;;;;;5.13;1.65;;;;;;;;;;10405112;28;20037;-61
2023/04/16 14:40:36;;;;;;;8.18;1.80;;;;;;;;;;10376563;28;20037;-60
2023/04/16 14:45:37;;;;;;;9.77;2.05;;;;;;;;;;10400658;28;20030;-61
2023/04/16 14:50:42;;;;;;;5.15;1.67;;;;;;;;;;10407664;28;20013;-60
2023/04/16 14:55:43;;;;;;;2.28;1.60;;;;;;;;;;10410762;28;20045;-59
2023/04/16 15:00:44;;;;;;;2.72;1.75;;;;;;;;;;10387377;28;20029;-61
2023/04/16 15:05:46;;;;;;;6.65;1.92;;;;;;;;;;10403838;28;20397;-61
2023/04/16 15:10:46;;;;;;;9.70;2.00;;;;;;;;;;10404485;28;20034;-61
2023/04/16 15:15:47;;;;;;;4.80;1.98;;;;;;;;;;10400344;28;20029;-61
2023/04/16 15:20:48;;;;;;;6.07;1.48;;;;;;;;;;10405082;28;20039;-60
2023/04/16 15:25:48;;;;;;;11.70;2.50;;;;;;;;;;10407628;28;20028;-61
2023/04/16 15:30:50;;;;;;;10.57;2.05;;;;;;;;;;10402443;28;20087;-62
2023/04/16 15:35:51;;;;;;;13.93;1.77;;;;;;;;;;10399808;28;20029;-61
2023/04/16 15:40:51;;;;;;;1.73;1.33;;;;;;;;;;10404362;28;20092;-61
2023/04/16 15:45:52;;;;;;;3.45;1.90;;;;;;;;;;10384606;28;20037;-61
2023/04/16 15:50:53;;;;;;;14.15;2.35;;;;;;;;;;10402819;28;20397;-58
2023/04/16 15:55:54;;;;;;;4.97;1.77;;;;;;;;;;10423984;28;20064;-61
2023/04/16 16:00:55;;;;;;;3.08;1.70;;;;;;;;;;10410644;28;20028;-59
2023/04/16 16:05:56;;;;;;;8.93;1.63;;;;;;;;;;10405017;28;20045;-61
2023/04/16 16:10:56;;;;;;;6.85;1.83;;;;;;;;;;10409871;28;20029;-59
2023/04/16 16:15:57;;;;;;;5.60;1.48;;;;;;;;;;10410150;28;20029;-59
2023/04/16 16:20:58;;;;;;;3.35;1.58;;;;;;;;;;10407343;28;20037;-60
2023/04/16 16:25:59;;;;;;;5.13;1.83;;;;;;;;;;10411138;28;20030;-61
2023/04/16 16:31:00;;;;;;;7.95;1.73;;;;;;;;;;10409314;28;20087;-60
2023/04/16 16:36:01;;;;;;;3.45;1.80;;;;;;;;;;10410437;28;20033;-60
2023/04/16 16:41:02;;;;;;;5.30;1.58;;;;;;;;;;10390785;28;20025;-59
2023/04/16 16:46:06;;;;;;;1.35;1.25;;;;;;;;;;10409853;28;20029;-60
2023/04/16 16:51:09;;;;;;;6.72;1.77;;;;;;;;;;10409599;28;20068;-60
2023/04/16 16:56:10;;;;;;;26.90;2.00;;;;;;;;;;10409806;28;20477;-68
2023/04/16 17:01:11;;;;;;;7.40;1.92;;;;;;;;;;10402789;28;20029;-61
2023/04/16 17:06:11;;;;;;;17.48;2.33;;;;;;;;;;10402338;28;20022;-61
2023/04/16 17:11:13;;;;;;;4.93;1.75;;;;;;;;;;10381949;28;20033;-61
2023/04/16 17:16:16;;;;;;;8.05;1.90;;;;;;;;;;10382161;28;20508;-61
2023/04/16 17:21:16;;;;;;;4.32;1.70;;;;;;;;;;10405710;28;20060;-59
2023/04/16 17:26:17;;;;;;;17.33;2.38;;;;;;;;;;10407787;28;20036;-59
2023/04/16 17:31:18;;;;;;;11.45;2.30;;;;;;;;;;10407213;28;20049;-61
2023/04/16 17:36:21;;;;;;;9.75;3.22;;;;;;;;;;10408535;28;20453;-59
2023/04/16 17:41:22;;;;;;;11.10;2.53;;;;;;;;;;10409279;28;20389;-61
2023/04/16 17:46:22;;;;;;;10.82;2.17;;;;;;;;;;10405667;28;20100;-59
2023/04/16 17:51:23;;;;;;;7.45;2.13;;;;;;;;;;10409089;28;20360;-60
2023/04/16 17:56:23;;;;;;;5.60;2.25;;;;;;;;;;10409979;28;20034;-59
2023/04/16 18:01:24;;;;;;;8.70;2.13;;;;;;;;;;10407163;28;20030;-58
2023/04/16 18:06:26;;;;;;;3.70;2.05;;;;;;;;;;10403404;28;20485;-59
2023/04/16 18:11:27;;;;;;;8.88;2.22;;;;;;;;;;10408152;28;20037;-60
2023/04/16 18:16:27;;;;;;;6.70;1.90;;;;;;;;;;10405694;28;20033;-57
2023/04/16 18:21:29;;;;;;;6.78;1.95;;;;;;;;;;10407274;28;20070;-58
2023/04/16 18:26:29;;;;;;;6.97;1.70;;;;;;;;;;10407522;28;20025;-59
2023/04/16 18:31:30;;;;;;;7.22;2.00;;;;;;;;;;10406109;28;20099;-61
2023/04/16 18:36:31;;;;;;;3.03;1.58;;;;;;;;;;10406847;28;20034;-61
2023/04/16 18:41:32;;;;;;;5.03;1.63;;;;;;;;;;10405104;28;20029;-61
2023/04/16 18:46:32;;;;;;;10.10;2.30;;;;;;;;;;10405102;28;20029;-61
2023/04/16 18:51:33;;;;;;;2.72;1.65;;;;;;;;;;10405363;28;20049;-60
2023/04/16 18:56:33;;;;;;;4.65;1.63;;;;;;;;;;10405555;28;20034;-61
2023/04/16 19:01:34;;;;;;;2.97;1.70;;;;;;;;;;10406041;28;20029;-61
2023/04/16 19:06:35;;;;;;;10.75;2.40;;;;;;;;;;10403967;28;20371;-60
2023/04/16 19:11:35;;;;;;;4.40;1.88;;;;;;;;;;10403822;28;20079;-60
2023/04/16 19:16:37;;;;;;;6.88;1.83;;;;;;;;;;10403535;28;20037;-59
2023/04/16 19:21:38;;;;;;;4.22;1.70;;;;;;;;;;10404832;28;20037;-61
2023/04/16 19:26:38;;;;;;;3.03;1.60;;;;;;;;;;10404621;28;20101;-61
2023/04/16 19:31:39;;;;;;;3.30;1.63;;;;;;;;;;10405348;28;20401;-60
2023/04/16 19:36:40;;;;;;;3.53;1.75;;;;;;;;;;10387057;28;20516;-60
2023/04/16 19:41:41;;;;;;;4.38;1.52;;;;;;;;;;10403127;28;20018;-58
2023/04/16 19:46:41;;;;;;;2.95;1.70;;;;;;;;;;10383830;28;20057;-60
2023/04/16 19:51:42;;;;;;;2.00;1.60;;;;;;;;;;10403408;28;20056;-59
2023/04/16 19:56:42;;;;;;;2.13;1.45;;;;;;;;;;10403294;28;20021;-58
2023/04/16 20:01:43;;;;;;;3.50;1.65;;;;;;;;;;10404508;28;20037;-60
2023/04/16 20:06:43;;;;;;;6.03;1.58;;;;;;;;;;10403833;28;20037;-60
2023/04/16 20:11:46;;;;;;;3.00;1.50;;;;;;;;;;10403586;28;20044;-58
2023/04/16 20:16:47;;;;;;;3.85;1.52;;;;;;;;;;10404153;28;20057;-60
2023/04/16 20:21:47;;;;;;;3.88;1.65;;;;;;;;;;10404394;28;20121;-58
2023/04/16 20:26:48;;;;;;;5.68;1.63;;;;;;;;;;10402848;28;20500;-61
2023/04/16 20:31:49;;;;;;;1.98;1.42;;;;;;;;;;10402630;28;20386;-61
2023/04/16 20:36:49;;;;;;;1.98;1.70;;;;;;;;;;10403900;28;20963;-59
2023/04/16 20:41:55;;;;;;;1.85;1.65;;;;;;;;;;10410596;28;20037;-58
2023/04/16 20:46:56;;;;;;;3.30;1.40;;;;;;;;;;10410751;28;20103;-59
2023/04/16 20:51:57;;;;;;;3.47;1.50;;;;;;;;;;10397876;28;20068;-58
2023/04/16 20:56:58;;;;;;;1.95;1.60;;;;;;;;;;10409258;28;20060;-59
2023/04/16 21:01:58;;;;;;;2.78;1.70;;;;;;;;;;10411100;28;20621;-58
2023/04/16 21:07:02;;;;;;;2.17;1.20;;;;;;;;;;10410150;28;20036;-57
2023/04/16 21:12:03;;;;;;;3.92;1.50;;;;;;;;;;10410188;28;20116;-61
2023/04/16 21:17:04;;;;;;;3.75;1.63;;;;;;;;;;10399926;28;20558;-61
2023/04/16 21:22:05;;;;;;;2.88;1.75;;;;;;;;;;10408321;28;20486;-61
2023/04/16 21:27:05;;;;;;;2.75;1.55;;;;;;;;;;10408755;28;20032;-61
2023/04/16 21:32:06;;;;;;;3.50;1.80;;;;;;;;;;10409723;28;20037;-62
2023/04/16 21:37:07;;;;;;;2.47;1.88;;;;;;;;;;10406793;28;20033;-61
2023/04/16 21:42:07;;;;;;;4.07;1.75;;;;;;;;;;10403749;28;20022;-62
2023/04/16 21:47:08;;;;;;;3.05;1.60;;;;;;;;;;10394892;28;20037;-59
2023/04/16 21:52:13;;;;;;;7.32;1.90;;;;;;;;;;10403593;28;20037;-59
2023/04/16 21:57:13;;;;;;;2.20;1.70;;;;;;;;;;10404764;28;20057;-59
2023/04/16 22:02:16;;;;;;;6.18;2.53;;;;;;;;;;10407953;28;20084;-59
2023/04/16 22:07:19;;;;;;;3.28;1.90;;;;;;;;;;10407276;28;20083;-58
2023/04/16 22:12:20;;;;;;;7.22;1.70;;;;;;;;;;10407864;28;20568;-57
2023/04/16 22:17:20;;;;;;;3.28;1.52;;;;;;;;;;10406371;28;20037;-57
2023/04/16 22:22:21;;;;;;;2.60;1.95;;;;;;;;;;10403299;28;20037;-58
2023/04/16 22:27:21;;;;;;;3.60;1.90;;;;;;;;;;10406203;28;20120;-60
2023/04/16 22:32:22;;;;;;;3.88;1.73;;;;;;;;;;10407386;28;20037;-59
2023/04/16 22:37:22;;;;;;;4.28;1.60;;;;;;;;;;10405746;28;20033;-58
2023/04/16 22:42:23;;;;;;;4.32;1.92;;;;;;;;;;10407124;28;20381;-59
2023/04/16 22:47:24;;;;;;;3.28;1.98;;;;;;;;;;10407504;28;20330;-58
2023/04/16 22:52:24;;;;;;;4.07;1.88;;;;;;;;;;10406945;28;20430;-59
2023/04/16 22:57:25;;;;;;;3.22;1.65;;;;;;;;;;10402394;28;21123;-59
2023/04/16 23:02:26;;;;;;;3.35;1.60;;;;;;;;;;10402202;28;20332;-58
2023/04/16 23:07:26;;;;;;;8.95;1.75;;;;;;;;;;10404585;28;20029;-59
2023/04/16 23:12:27;;;;;;;3.17;1.92;;;;;;;;;;10404680;28;20030;-59
2023/04/16 23:17:27;;;;;;;8.63;2.22;;;;;;;;;;10405020;28;20028;-59
2023/04/16 23:22:28;;;;;;;2.42;1.60;;;;;;;;;;10404266;28;20025;-58
2023/04/16 23:27:29;;;;;;;3.53;1.45;;;;;;;;;;10404269;28;20029;-59
2023/04/16 23:32:30;;;;;;;3.22;2.05;;;;;;;;;;10404467;28;20036;-59
2023/04/16 23:37:30;;;;;;;2.60;1.55;;;;;;;;;;10404432;28;20071;-59
2023/04/16 23:42:31;;;;;;;3.58;1.48;;;;;;;;;;10403868;28;20029;-59
2023/04/16 23:47:31;;;;;;;1.58;1.48;;;;;;;;;;10405433;28;20037;-59
2023/04/16 23:52:32;;;;;;;2.75;1.45;;;;;;;;;;10403775;28;20074;-59
2023/04/16 23:57:33;;;;;;;2.53;1.65;;;;;;;;;;10402806;28;20029;-59
